sensor_id;sensor_type;location;lat;lon;timestamp;temperature;humidity
51783;DHT22;37845;53.196;5.638;2022-09-23T00:01:14;12.10;99.90
51783;DHT22;37845;53.196;5.638;2022-09-23T00:03:40;12.10;99.90
51783;DHT22;37845;53.196;5.638;2022-09-23T00:06:07;12.10;99.90
51783;DHT22;37845;53.196;5.638;2022-09-23T00:08:35;12.10;99.90
51783;DHT22;37845;53.196;5.638;2022-09-23T00:11:11;12.10;99.90
51783;DHT22;37845;53.196;5.638;2022-09-23T00:13:38;12.10;99.90
51783;DHT22;37845;53.196;5.638;2022-09-23T00:16:05;12.00;99.90
51783;DHT22;37845;53.196;5.638;2022-09-23T00:18:31;12.00;99.90
51783;DHT22;37845;53.196;5.638;2022-09-23T00:20:56;12.00;99.90
51783;DHT22;37845;53.196;5.638;2022-09-23T00:23:22;12.00;99.90
51783;DHT22;37845;53.196;5.638;2022-09-23T00:25:57;12.00;99.90
51783;DHT22;37845;53.196;5.638;2022-09-23T00:28:23;12.00;99.90
51783;DHT22;37845;53.196;5.638;2022-09-23T00:30:49;12.00;99.90
51783;DHT22;37845;53.196;5.638;2022-09-23T00:33:14;12.00;99.90
51783;DHT22;37845;53.196;5.638;2022-09-23T00:35:40;12.00;99.90
51783;DHT22;37845;53.196;5.638;2022-09-23T00:38:05;12.00;99.90
51783;DHT22;37845;53.196;5.638;2022-09-23T00:40:31;12.00;99.90
51783;DHT22;37845;53.196;5.638;2022-09-23T00:42:57;12.00;99.90
51783;DHT22;37845;53.196;5.638;2022-09-23T00:45:22;12.00;99.90
51783;DHT22;37845;53.196;5.638;2022-09-23T00:48:00;12.00;99.90
51783;DHT22;37845;53.196;5.638;2022-09-23T00:50:28;12.00;99.90
51783;DHT22;37845;53.196;5.638;2022-09-23T00:52:55;12.00;99.90
51783;DHT22;37845;53.196;5.638;2022-09-23T00:58:27;12.00;99.90
51783;DHT22;37845;53.196;5.638;2022-09-23T01:00:55;12.00;99.90
51783;DHT22;37845;53.196;5.638;2022-09-23T01:03:24;12.00;99.90
51783;DHT22;37845;53.196;5.638;2022-09-23T01:05:50;12.00;99.90
51783;DHT22;37845;53.196;5.638;2022-09-23T01:08:16;12.00;99.90
51783;DHT22;37845;53.196;5.638;2022-09-23T01:10:51;11.90;99.90
51783;DHT22;37845;53.196;5.638;2022-09-23T01:13:22;11.90;99.90
51783;DHT22;37845;53.196;5.638;2022-09-23T01:15:55;11.90;99.90
51783;DHT22;37845;53.196;5.638;2022-09-23T01:20:55;11.90;99.90
51783;DHT22;37845;53.196;5.638;2022-09-23T01:31:33;11.80;99.90
51783;DHT22;37845;53.196;5.638;2022-09-23T01:34:10;11.80;99.90
51783;DHT22;37845;53.196;5.638;2022-09-23T01:44:11;11.70;99.90
51783;DHT22;37845;53.196;5.638;2022-09-23T01:46:41;11.60;99.90
51783;DHT22;37845;53.196;5.638;2022-09-23T01:51:47;11.60;99.90
51783;DHT22;37845;53.196;5.638;2022-09-23T01:54:24;11.60;99.90
51783;DHT22;37845;53.196;5.638;2022-09-23T01:56:57;11.50;99.90
51783;DHT22;37845;53.196;5.638;2022-09-23T01:59:33;11.50;99.90
51783;DHT22;37845;53.196;5.638;2022-09-23T02:02:02;11.50;99.90
51783;DHT22;37845;53.196;5.638;2022-09-23T02:04:29;11.50;99.90
51783;DHT22;37845;53.196;5.638;2022-09-23T02:06:58;11.50;99.90
51783;DHT22;37845;53.196;5.638;2022-09-23T02:09:27;11.50;99.90
51783;DHT22;37845;53.196;5.638;2022-09-23T02:11:56;11.40;99.90
51783;DHT22;37845;53.196;5.638;2022-09-23T02:14:28;11.40;99.90
51783;DHT22;37845;53.196;5.638;2022-09-23T02:16:56;11.40;99.90
51783;DHT22;37845;53.196;5.638;2022-09-23T02:21:52;11.30;99.90
51783;DHT22;37845;53.196;5.638;2022-09-23T02:24:21;11.40;99.90
51783;DHT22;37845;53.196;5.638;2022-09-23T02:26:54;11.30;99.90
51783;DHT22;37845;53.196;5.638;2022-09-23T02:35:04;11.30;99.90
51783;DHT22;37845;53.196;5.638;2022-09-23T02:37:38;11.20;99.90
51783;DHT22;37845;53.196;5.638;2022-09-23T02:42:55;11.20;99.90
51783;DHT22;37845;53.196;5.638;2022-09-23T02:45:21;11.10;99.90
51783;DHT22;37845;53.196;5.638;2022-09-23T02:47:48;11.10;99.90
51783;DHT22;37845;53.196;5.638;2022-09-23T02:50:16;11.80;99.90
51783;DHT22;37845;53.196;5.638;2022-09-23T02:52:44;11.00;99.90
51783;DHT22;37845;53.196;5.638;2022-09-23T02:55:11;11.00;99.90
51783;DHT22;37845;53.196;5.638;2022-09-23T02:57:40;11.00;99.90
51783;DHT22;37845;53.196;5.638;2022-09-23T03:00:06;11.00;99.90
51783;DHT22;37845;53.196;5.638;2022-09-23T03:02:54;11.00;99.90
51783;DHT22;37845;53.196;5.638;2022-09-23T03:05:30;10.90;99.90
51783;DHT22;37845;53.196;5.638;2022-09-23T03:10:47;11.20;99.90
51783;DHT22;37845;53.196;5.638;2022-09-23T03:13:20;10.80;99.90
51783;DHT22;37845;53.196;5.638;2022-09-23T03:16:07;10.90;99.90
51783;DHT22;37845;53.196;5.638;2022-09-23T03:18:38;10.80;99.90
51783;DHT22;37845;53.196;5.638;2022-09-23T03:21:10;10.80;99.90
51783;DHT22;37845;53.196;5.638;2022-09-23T03:23:38;10.80;99.90
51783;DHT22;37845;53.196;5.638;2022-09-23T03:26:07;10.80;99.90
51783;DHT22;37845;53.196;5.638;2022-09-23T03:28:34;10.80;99.90
51783;DHT22;37845;53.196;5.638;2022-09-23T03:31:00;10.80;99.90
51783;DHT22;37845;53.196;5.638;2022-09-23T03:33:26;10.80;99.90
51783;DHT22;37845;53.196;5.638;2022-09-23T03:35:59;10.80;99.90
51783;DHT22;37845;53.196;5.638;2022-09-23T03:38:46;10.80;99.90
51783;DHT22;37845;53.196;5.638;2022-09-23T03:41:16;11.40;99.90
51783;DHT22;37845;53.196;5.638;2022-09-23T03:43:47;10.70;99.90
51783;DHT22;37845;53.196;5.638;2022-09-23T03:46:13;10.70;99.90
51783;DHT22;37845;53.196;5.638;2022-09-23T03:48:43;10.70;99.90
51783;DHT22;37845;53.196;5.638;2022-09-23T03:51:43;10.70;99.90
51783;DHT22;37845;53.196;5.638;2022-09-23T03:54:01;10.70;99.90
51783;DHT22;37845;53.196;5.638;2022-09-23T03:56:27;10.60;99.90
51783;DHT22;37845;53.196;5.638;2022-09-23T03:58:52;10.60;99.90
51783;DHT22;37845;53.196;5.638;2022-09-23T04:01:18;10.60;99.90
51783;DHT22;37845;53.196;5.638;2022-09-23T04:03:44;10.60;99.90
51783;DHT22;37845;53.196;5.638;2022-09-23T04:06:09;10.60;99.90
51783;DHT22;37845;53.196;5.638;2022-09-23T04:08:35;10.60;99.90
51783;DHT22;37845;53.196;5.638;2022-09-23T04:11:01;10.50;99.90
51783;DHT22;37845;53.196;5.638;2022-09-23T04:13:27;10.60;99.90
51783;DHT22;37845;53.196;5.638;2022-09-23T04:15:53;10.50;99.90
51783;DHT22;37845;53.196;5.638;2022-09-23T04:18:19;11.00;99.90
51783;DHT22;37845;53.196;5.638;2022-09-23T04:20:45;10.60;99.90
51783;DHT22;37845;53.196;5.638;2022-09-23T04:23:11;10.60;99.90
51783;DHT22;37845;53.196;5.638;2022-09-23T04:25:46;10.50;99.90
51783;DHT22;37845;53.196;5.638;2022-09-23T04:28:12;10.50;99.90
51783;DHT22;37845;53.196;5.638;2022-09-23T04:30:38;10.50;99.90
51783;DHT22;37845;53.196;5.638;2022-09-23T04:33:06;10.50;99.90
51783;DHT22;37845;53.196;5.638;2022-09-23T04:35:32;10.50;99.90
51783;DHT22;37845;53.196;5.638;2022-09-23T04:37:58;10.50;99.90
51783;DHT22;37845;53.196;5.638;2022-09-23T04:40:24;10.50;99.90
51783;DHT22;37845;53.196;5.638;2022-09-23T04:42:49;10.50;99.90
51783;DHT22;37845;53.196;5.638;2022-09-23T04:45:15;10.50;99.90
51783;DHT22;37845;53.196;5.638;2022-09-23T04:47:40;10.50;99.90
51783;DHT22;37845;53.196;5.638;2022-09-23T04:50:06;10.60;99.90
51783;DHT22;37845;53.196;5.638;2022-09-23T04:52:32;10.50;99.90
51783;DHT22;37845;53.196;5.638;2022-09-23T04:54:57;10.60;99.90
51783;DHT22;37845;53.196;5.638;2022-09-23T04:57:23;10.60;99.90
51783;DHT22;37845;53.196;5.638;2022-09-23T04:59:49;10.60;99.90
51783;DHT22;37845;53.196;5.638;2022-09-23T05:02:15;10.60;99.90
51783;DHT22;37845;53.196;5.638;2022-09-23T05:04:40;10.70;99.90
51783;DHT22;37845;53.196;5.638;2022-09-23T05:07:06;10.60;99.90
51783;DHT22;37845;53.196;5.638;2022-09-23T05:09:32;10.60;99.90
51783;DHT22;37845;53.196;5.638;2022-09-23T05:11:58;10.70;99.90
51783;DHT22;37845;53.196;5.638;2022-09-23T05:14:23;10.60;99.90
51783;DHT22;37845;53.196;5.638;2022-09-23T05:16:49;10.70;99.90
51783;DHT22;37845;53.196;5.638;2022-09-23T05:19:14;10.70;99.90
51783;DHT22;37845;53.196;5.638;2022-09-23T05:21:40;10.70;99.90
51783;DHT22;37845;53.196;5.638;2022-09-23T05:24:06;10.70;99.90
51783;DHT22;37845;53.196;5.638;2022-09-23T05:26:31;10.70;99.90
51783;DHT22;37845;53.196;5.638;2022-09-23T05:28:57;10.70;99.90
51783;DHT22;37845;53.196;5.638;2022-09-23T05:31:24;10.70;99.90
51783;DHT22;37845;53.196;5.638;2022-09-23T05:33:57;10.70;99.90
51783;DHT22;37845;53.196;5.638;2022-09-23T05:36:23;10.70;99.90
51783;DHT22;37845;53.196;5.638;2022-09-23T05:38:49;10.70;99.90
51783;DHT22;37845;53.196;5.638;2022-09-23T05:41:16;10.70;99.90
51783;DHT22;37845;53.196;5.638;2022-09-23T05:43:42;10.70;99.90
51783;DHT22;37845;53.196;5.638;2022-09-23T05:46:14;10.80;99.90
51783;DHT22;37845;53.196;5.638;2022-09-23T05:48:40;10.70;99.90
51783;DHT22;37845;53.196;5.638;2022-09-23T05:51:07;10.70;99.90
51783;DHT22;37845;53.196;5.638;2022-09-23T05:53:35;10.70;99.90
51783;DHT22;37845;53.196;5.638;2022-09-23T05:56:01;10.70;99.90
51783;DHT22;37845;53.196;5.638;2022-09-23T05:58:27;10.80;99.90
51783;DHT22;37845;53.196;5.638;2022-09-23T06:00:53;10.70;99.90
51783;DHT22;37845;53.196;5.638;2022-09-23T06:03:22;10.70;99.90
51783;DHT22;37845;53.196;5.638;2022-09-23T06:05:51;10.70;99.90
51783;DHT22;37845;53.196;5.638;2022-09-23T06:08:17;10.70;99.90
51783;DHT22;37845;53.196;5.638;2022-09-23T06:10:43;10.80;99.90
51783;DHT22;37845;53.196;5.638;2022-09-23T06:13:09;10.80;99.90
51783;DHT22;37845;53.196;5.638;2022-09-23T06:15:35;10.80;99.90
51783;DHT22;37845;53.196;5.638;2022-09-23T06:18:01;10.80;99.90
51783;DHT22;37845;53.196;5.638;2022-09-23T06:20:27;10.80;99.90
51783;DHT22;37845;53.196;5.638;2022-09-23T06:22:53;10.90;99.90
51783;DHT22;37845;53.196;5.638;2022-09-23T06:25:19;10.90;99.90
51783;DHT22;37845;53.196;5.638;2022-09-23T06:27:51;10.90;99.90
51783;DHT22;37845;53.196;5.638;2022-09-23T06:30:19;10.90;99.90
51783;DHT22;37845;53.196;5.638;2022-09-23T06:32:48;11.30;99.90
51783;DHT22;37845;53.196;5.638;2022-09-23T06:35:14;11.00;99.90
51783;DHT22;37845;53.196;5.638;2022-09-23T06:37:40;11.10;99.90
51783;DHT22;37845;53.196;5.638;2022-09-23T06:40:06;11.10;99.90
51783;DHT22;37845;53.196;5.638;2022-09-23T06:42:31;11.20;99.90
51783;DHT22;37845;53.196;5.638;2022-09-23T06:44:57;11.20;99.90
51783;DHT22;37845;53.196;5.638;2022-09-23T06:47:23;11.30;99.90
51783;DHT22;37845;53.196;5.638;2022-09-23T06:49:49;11.30;99.90
51783;DHT22;37845;53.196;5.638;2022-09-23T06:52:15;11.40;99.90
51783;DHT22;37845;53.196;5.638;2022-09-23T06:54:41;11.40;99.90
51783;DHT22;37845;53.196;5.638;2022-09-23T06:57:07;11.40;99.90
51783;DHT22;37845;53.196;5.638;2022-09-23T06:59:34;11.50;99.90
51783;DHT22;37845;53.196;5.638;2022-09-23T07:01:59;11.50;99.90
51783;DHT22;37845;53.196;5.638;2022-09-23T07:04:26;11.50;99.90
51783;DHT22;37845;53.196;5.638;2022-09-23T07:06:52;11.60;99.90
51783;DHT22;37845;53.196;5.638;2022-09-23T07:09:18;11.60;99.90
51783;DHT22;37845;53.196;5.638;2022-09-23T07:11:45;11.60;99.90
51783;DHT22;37845;53.196;5.638;2022-09-23T07:14:11;11.60;99.90
51783;DHT22;37845;53.196;5.638;2022-09-23T07:16:38;11.70;99.90
51783;DHT22;37845;53.196;5.638;2022-09-23T07:19:04;11.70;99.90
51783;DHT22;37845;53.196;5.638;2022-09-23T07:21:29;12.10;99.90
51783;DHT22;37845;53.196;5.638;2022-09-23T07:23:55;11.80;99.90
51783;DHT22;37845;53.196;5.638;2022-09-23T07:26:22;11.80;99.90
51783;DHT22;37845;53.196;5.638;2022-09-23T07:28:54;11.80;99.90
51783;DHT22;37845;53.196;5.638;2022-09-23T07:31:21;11.90;99.90
51783;DHT22;37845;53.196;5.638;2022-09-23T07:33:47;11.90;99.90
51783;DHT22;37845;53.196;5.638;2022-09-23T07:36:14;11.90;99.90
51783;DHT22;37845;53.196;5.638;2022-09-23T07:38:41;12.00;99.90
51783;DHT22;37845;53.196;5.638;2022-09-23T07:41:08;12.10;99.90
51783;DHT22;37845;53.196;5.638;2022-09-23T07:43:34;12.10;99.90
51783;DHT22;37845;53.196;5.638;2022-09-23T07:46:00;12.20;99.90
51783;DHT22;37845;53.196;5.638;2022-09-23T07:48:27;12.20;99.90
51783;DHT22;37845;53.196;5.638;2022-09-23T07:50:54;12.30;99.90
51783;DHT22;37845;53.196;5.638;2022-09-23T07:53:19;12.30;99.90
51783;DHT22;37845;53.196;5.638;2022-09-23T07:55:54;12.40;99.90
51783;DHT22;37845;53.196;5.638;2022-09-23T07:58:20;12.50;99.90
51783;DHT22;37845;53.196;5.638;2022-09-23T08:00:46;12.50;99.90
51783;DHT22;37845;53.196;5.638;2022-09-23T08:03:12;12.60;99.90
51783;DHT22;37845;53.196;5.638;2022-09-23T08:05:39;12.60;99.90
51783;DHT22;37845;53.196;5.638;2022-09-23T08:08:05;12.70;99.90
51783;DHT22;37845;53.196;5.638;2022-09-23T08:10:32;12.70;99.90
51783;DHT22;37845;53.196;5.638;2022-09-23T08:12:57;12.70;99.90
51783;DHT22;37845;53.196;5.638;2022-09-23T08:15:28;12.80;99.90
51783;DHT22;37845;53.196;5.638;2022-09-23T08:17:58;12.80;99.90
51783;DHT22;37845;53.196;5.638;2022-09-23T08:20:24;12.90;99.90
51783;DHT22;37845;53.196;5.638;2022-09-23T08:23:09;12.90;99.90
51783;DHT22;37845;53.196;5.638;2022-09-23T08:25:35;12.90;99.90
51783;DHT22;37845;53.196;5.638;2022-09-23T08:28:00;13.00;99.90
51783;DHT22;37845;53.196;5.638;2022-09-23T08:30:26;13.00;99.90
51783;DHT22;37845;53.196;5.638;2022-09-23T08:32:51;13.00;99.90
51783;DHT22;37845;53.196;5.638;2022-09-23T08:35:17;13.10;99.90
51783;DHT22;37845;53.196;5.638;2022-09-23T08:37:43;13.20;99.90
51783;DHT22;37845;53.196;5.638;2022-09-23T08:40:08;13.20;99.90
51783;DHT22;37845;53.196;5.638;2022-09-23T08:42:34;13.20;99.90
51783;DHT22;37845;53.196;5.638;2022-09-23T08:45:02;13.30;99.90
51783;DHT22;37845;53.196;5.638;2022-09-23T08:50:28;13.40;99.90
51783;DHT22;37845;53.196;5.638;2022-09-23T08:53:04;13.50;99.90
51783;DHT22;37845;53.196;5.638;2022-09-23T08:55:41;13.50;99.90
51783;DHT22;37845;53.196;5.638;2022-09-23T09:03:35;13.60;99.90
51783;DHT22;37845;53.196;5.638;2022-09-23T09:06:02;13.60;99.90
51783;DHT22;37845;53.196;5.638;2022-09-23T09:08:30;13.60;99.90
51783;DHT22;37845;53.196;5.638;2022-09-23T09:10:57;13.70;99.90
51783;DHT22;37845;53.196;5.638;2022-09-23T09:13:32;13.70;99.90
51783;DHT22;37845;53.196;5.638;2022-09-23T09:18:52;13.80;99.90
51783;DHT22;37845;53.196;5.638;2022-09-23T09:21:19;13.80;99.90
51783;DHT22;37845;53.196;5.638;2022-09-23T09:23:56;13.80;99.90
51783;DHT22;37845;53.196;5.638;2022-09-23T09:28:48;13.90;99.90
51783;DHT22;37845;53.196;5.638;2022-09-23T09:31:22;13.90;99.90
51783;DHT22;37845;53.196;5.638;2022-09-23T09:38:55;14.00;99.90
51783;DHT22;37845;53.196;5.638;2022-09-23T09:41:25;14.10;99.90
51783;DHT22;37845;53.196;5.638;2022-09-23T09:43:51;14.10;99.90
51783;DHT22;37845;53.196;5.638;2022-09-23T09:49:23;14.20;99.90
51783;DHT22;37845;53.196;5.638;2022-09-23T09:52:09;14.20;99.90
51783;DHT22;37845;53.196;5.638;2022-09-23T09:54:35;14.30;99.90
51783;DHT22;37845;53.196;5.638;2022-09-23T09:57:02;14.30;99.90
51783;DHT22;37845;53.196;5.638;2022-09-23T09:59:29;14.30;99.90
51783;DHT22;37845;53.196;5.638;2022-09-23T10:02:19;14.30;99.90
51783;DHT22;37845;53.196;5.638;2022-09-23T10:05:21;14.40;99.90
51783;DHT22;37845;53.196;5.638;2022-09-23T10:07:36;14.40;99.90
51783;DHT22;37845;53.196;5.638;2022-09-23T10:10:17;14.40;99.90
51783;DHT22;37845;53.196;5.638;2022-09-23T10:12:48;14.40;99.90
51783;DHT22;37845;53.196;5.638;2022-09-23T10:17:59;14.50;99.90
51783;DHT22;37845;53.196;5.638;2022-09-23T10:20:59;14.60;99.90
51783;DHT22;37845;53.196;5.638;2022-09-23T10:23:19;14.60;99.90
51783;DHT22;37845;53.196;5.638;2022-09-23T10:25:57;14.70;99.90
51783;DHT22;37845;53.196;5.638;2022-09-23T10:33:50;14.70;99.90
51783;DHT22;37845;53.196;5.638;2022-09-23T10:36:16;14.80;99.90
51783;DHT22;37845;53.196;5.638;2022-09-23T10:38:42;14.80;99.90
51783;DHT22;37845;53.196;5.638;2022-09-23T10:41:12;14.80;99.90
51783;DHT22;37845;53.196;5.638;2022-09-23T10:44:10;14.80;99.90
51783;DHT22;37845;53.196;5.638;2022-09-23T10:57:41;15.10;99.90
51783;DHT22;37845;53.196;5.638;2022-09-23T11:05:24;15.60;99.90
51783;DHT22;37845;53.196;5.638;2022-09-23T11:08:02;15.20;99.90
51783;DHT22;37845;53.196;5.638;2022-09-23T11:10:38;15.20;99.90
51783;DHT22;37845;53.196;5.638;2022-09-23T11:26:11;15.20;99.90
51783;DHT22;37845;53.196;5.638;2022-09-23T11:36:25;15.20;99.90
51783;DHT22;37845;53.196;5.638;2022-09-23T11:38:54;15.20;99.90
51783;DHT22;37845;53.196;5.638;2022-09-23T11:41:31;15.20;99.90
51783;DHT22;37845;53.196;5.638;2022-09-23T11:44:00;15.20;99.90
51783;DHT22;37845;53.196;5.638;2022-09-23T11:46:30;15.20;99.90
51783;DHT22;37845;53.196;5.638;2022-09-23T11:56:29;15.10;99.90
51783;DHT22;37845;53.196;5.638;2022-09-23T11:58:59;15.10;99.90
51783;DHT22;37845;53.196;5.638;2022-09-23T12:01:27;15.10;99.90
51783;DHT22;37845;53.196;5.638;2022-09-23T12:04:02;15.10;99.90
51783;DHT22;37845;53.196;5.638;2022-09-23T12:06:32;15.10;99.90
51783;DHT22;37845;53.196;5.638;2022-09-23T12:09:00;15.10;99.90
51783;DHT22;37845;53.196;5.638;2022-09-23T12:11:30;15.10;99.90
51783;DHT22;37845;53.196;5.638;2022-09-23T12:24:45;15.20;99.90
51783;DHT22;37845;53.196;5.638;2022-09-23T12:27:16;15.20;99.90
51783;DHT22;37845;53.196;5.638;2022-09-23T12:29:54;15.20;99.90
51783;DHT22;37845;53.196;5.638;2022-09-23T12:32:20;15.20;99.90
51783;DHT22;37845;53.196;5.638;2022-09-23T12:34:46;15.30;99.90
51783;DHT22;37845;53.196;5.638;2022-09-23T12:37:21;15.20;99.90
51783;DHT22;37845;53.196;5.638;2022-09-23T12:39:47;15.20;99.90
51783;DHT22;37845;53.196;5.638;2022-09-23T12:42:16;15.30;99.90
51783;DHT22;37845;53.196;5.638;2022-09-23T12:44:44;15.20;99.90
51783;DHT22;37845;53.196;5.638;2022-09-23T12:49:52;15.20;99.90
51783;DHT22;37845;53.196;5.638;2022-09-23T12:54:50;15.20;99.90
51783;DHT22;37845;53.196;5.638;2022-09-23T13:07:57;15.20;99.90
51783;DHT22;37845;53.196;5.638;2022-09-23T13:10:28;15.10;99.90
51783;DHT22;37845;53.196;5.638;2022-09-23T13:12:54;15.20;99.90
51783;DHT22;37845;53.196;5.638;2022-09-23T13:15:25;15.30;99.90
51783;DHT22;37845;53.196;5.638;2022-09-23T13:18:07;15.30;99.90
51783;DHT22;37845;53.196;5.638;2022-09-23T13:20:38;15.00;99.90
51783;DHT22;37845;53.196;5.638;2022-09-23T13:23:26;15.30;99.90
51783;DHT22;37845;53.196;5.638;2022-09-23T13:25:58;15.30;99.90
51783;DHT22;37845;53.196;5.638;2022-09-23T13:28:31;15.40;99.90
51783;DHT22;37845;53.196;5.638;2022-09-23T13:30:57;15.40;99.90
51783;DHT22;37845;53.196;5.638;2022-09-23T13:33:28;15.40;99.90
51783;DHT22;37845;53.196;5.638;2022-09-23T13:36:00;15.40;99.90
51783;DHT22;37845;53.196;5.638;2022-09-23T13:38:31;15.40;99.90
51783;DHT22;37845;53.196;5.638;2022-09-23T13:41:06;15.40;99.90
51783;DHT22;37845;53.196;5.638;2022-09-23T13:43:33;15.40;99.90
51783;DHT22;37845;53.196;5.638;2022-09-23T13:45:59;15.40;99.90
51783;DHT22;37845;53.196;5.638;2022-09-23T13:48:26;15.50;99.90
51783;DHT22;37845;53.196;5.638;2022-09-23T13:50:52;15.50;99.90
51783;DHT22;37845;53.196;5.638;2022-09-23T13:53:25;15.50;99.90
51783;DHT22;37845;53.196;5.638;2022-09-23T13:56:00;15.50;99.90
51783;DHT22;37845;53.196;5.638;2022-09-23T13:58:27;15.50;99.90
51783;DHT22;37845;53.196;5.638;2022-09-23T14:00:53;15.50;99.90
51783;DHT22;37845;53.196;5.638;2022-09-23T14:03:52;15.50;99.90
51783;DHT22;37845;53.196;5.638;2022-09-23T14:06:11;15.50;99.90
51783;DHT22;37845;53.196;5.638;2022-09-23T14:08:40;15.50;99.90
51783;DHT22;37845;53.196;5.638;2022-09-23T14:11:07;15.50;99.90
51783;DHT22;37845;53.196;5.638;2022-09-23T14:13:41;15.50;99.90
51783;DHT22;37845;53.196;5.638;2022-09-23T14:16:08;15.50;99.90
51783;DHT22;37845;53.196;5.638;2022-09-23T14:18:39;15.50;99.90
51783;DHT22;37845;53.196;5.638;2022-09-23T14:21:05;15.50;99.90
51783;DHT22;37845;53.196;5.638;2022-09-23T14:23:50;15.50;99.90
51783;DHT22;37845;53.196;5.638;2022-09-23T14:26:15;15.50;99.90
51783;DHT22;37845;53.196;5.638;2022-09-23T14:28:41;15.50;99.90
51783;DHT22;37845;53.196;5.638;2022-09-23T14:31:07;15.50;99.90
51783;DHT22;37845;53.196;5.638;2022-09-23T14:33:33;15.50;99.90
51783;DHT22;37845;53.196;5.638;2022-09-23T14:36:07;15.50;99.90
51783;DHT22;37845;53.196;5.638;2022-09-23T14:38:59;15.50;99.90
51783;DHT22;37845;53.196;5.638;2022-09-23T14:41:25;15.50;99.90
51783;DHT22;37845;53.196;5.638;2022-09-23T14:43:52;15.50;99.90
51783;DHT22;37845;53.196;5.638;2022-09-23T14:46:19;15.40;99.90
51783;DHT22;37845;53.196;5.638;2022-09-23T14:51:50;15.40;99.90
51783;DHT22;37845;53.196;5.638;2022-09-23T14:54:21;15.40;99.90
51783;DHT22;37845;53.196;5.638;2022-09-23T14:56:48;15.40;99.90
51783;DHT22;37845;53.196;5.638;2022-09-23T14:59:33;15.30;99.90
51783;DHT22;37845;53.196;5.638;2022-09-23T15:02:00;15.30;99.90
51783;DHT22;37845;53.196;5.638;2022-09-23T15:04:27;15.30;99.90
51783;DHT22;37845;53.196;5.638;2022-09-23T15:09:31;15.20;99.90
51783;DHT22;37845;53.196;5.638;2022-09-23T15:12:01;15.20;99.90
51783;DHT22;37845;53.196;5.638;2022-09-23T15:14:28;15.20;99.90
51783;DHT22;37845;53.196;5.638;2022-09-23T15:16:55;15.30;99.90
51783;DHT22;37845;53.196;5.638;2022-09-23T15:19:21;15.30;99.90
51783;DHT22;37845;53.196;5.638;2022-09-23T15:21:49;15.30;99.90
51783;DHT22;37845;53.196;5.638;2022-09-23T15:24:35;15.30;99.90
51783;DHT22;37845;53.196;5.638;2022-09-23T15:27:00;15.40;99.90
51783;DHT22;37845;53.196;5.638;2022-09-23T15:29:26;15.40;99.90
51783;DHT22;37845;53.196;5.638;2022-09-23T15:31:52;15.40;99.90
51783;DHT22;37845;53.196;5.638;2022-09-23T15:34:21;15.50;99.90
51783;DHT22;37845;53.196;5.638;2022-09-23T15:36:47;15.50;99.90
51783;DHT22;37845;53.196;5.638;2022-09-23T15:39:13;15.60;99.90
51783;DHT22;37845;53.196;5.638;2022-09-23T15:41:39;15.60;99.90
51783;DHT22;37845;53.196;5.638;2022-09-23T15:46:36;15.50;99.90
51783;DHT22;37845;53.196;5.638;2022-09-23T15:49:03;15.50;99.90
51783;DHT22;37845;53.196;5.638;2022-09-23T15:51:29;15.50;99.90
51783;DHT22;37845;53.196;5.638;2022-09-23T15:53:55;15.50;99.90
51783;DHT22;37845;53.196;5.638;2022-09-23T15:56:21;15.50;99.90
51783;DHT22;37845;53.196;5.638;2022-09-23T15:58:47;15.50;99.90
51783;DHT22;37845;53.196;5.638;2022-09-23T16:01:16;15.50;99.90
51783;DHT22;37845;53.196;5.638;2022-09-23T16:03:42;15.50;99.90
51783;DHT22;37845;53.196;5.638;2022-09-23T16:06:10;15.50;99.90
51783;DHT22;37845;53.196;5.638;2022-09-23T16:08:36;15.50;99.90
51783;DHT22;37845;53.196;5.638;2022-09-23T16:11:03;15.50;99.90
51783;DHT22;37845;53.196;5.638;2022-09-23T16:13:30;15.40;99.90
51783;DHT22;37845;53.196;5.638;2022-09-23T16:15:56;15.40;99.90
51783;DHT22;37845;53.196;5.638;2022-09-23T16:18:21;15.40;99.90
51783;DHT22;37845;53.196;5.638;2022-09-23T16:20:56;15.30;99.90
51783;DHT22;37845;53.196;5.638;2022-09-23T16:23:26;15.30;99.90
51783;DHT22;37845;53.196;5.638;2022-09-23T16:28:41;15.20;99.90
51783;DHT22;37845;53.196;5.638;2022-09-23T16:31:07;15.20;99.90
51783;DHT22;37845;53.196;5.638;2022-09-23T16:33:35;15.20;99.90
51783;DHT22;37845;53.196;5.638;2022-09-23T16:36:01;15.20;99.90
51783;DHT22;37845;53.196;5.638;2022-09-23T16:41:22;15.10;99.90
51783;DHT22;37845;53.196;5.638;2022-09-23T16:43:48;15.20;99.90
51783;DHT22;37845;53.196;5.638;2022-09-23T16:46:14;15.10;99.90
51783;DHT22;37845;53.196;5.638;2022-09-23T16:48:41;15.20;99.90
51783;DHT22;37845;53.196;5.638;2022-09-23T17:17:46;15.00;99.90
51783;DHT22;37845;53.196;5.638;2022-09-23T17:20:12;15.00;99.90
51783;DHT22;37845;53.196;5.638;2022-09-23T17:22:38;15.00;99.90
51783;DHT22;37845;53.196;5.638;2022-09-23T17:25:05;15.00;99.90
51783;DHT22;37845;53.196;5.638;2022-09-23T17:27:31;15.00;99.90
51783;DHT22;37845;53.196;5.638;2022-09-23T17:29:56;15.00;99.90
51783;DHT22;37845;53.196;5.638;2022-09-23T17:32:23;15.00;99.90
51783;DHT22;37845;53.196;5.638;2022-09-23T17:34:49;15.00;99.90
51783;DHT22;37845;53.196;5.638;2022-09-23T17:37:15;15.00;99.90
51783;DHT22;37845;53.196;5.638;2022-09-23T17:39:40;15.00;99.90
51783;DHT22;37845;53.196;5.638;2022-09-23T17:42:07;14.90;99.90
51783;DHT22;37845;53.196;5.638;2022-09-23T17:44:42;15.00;99.90
51783;DHT22;37845;53.196;5.638;2022-09-23T17:47:08;14.90;99.90
51783;DHT22;37845;53.196;5.638;2022-09-23T17:49:33;15.00;99.90
51783;DHT22;37845;53.196;5.638;2022-09-23T17:52:03;15.00;99.90
51783;DHT22;37845;53.196;5.638;2022-09-23T17:54:33;14.90;99.90
51783;DHT22;37845;53.196;5.638;2022-09-23T17:57:00;15.00;99.90
51783;DHT22;37845;53.196;5.638;2022-09-23T17:59:26;15.00;99.90
51783;DHT22;37845;53.196;5.638;2022-09-23T18:01:52;15.00;99.90
51783;DHT22;37845;53.196;5.638;2022-09-23T18:04:18;15.00;99.90
51783;DHT22;37845;53.196;5.638;2022-09-23T18:06:44;15.00;99.90
51783;DHT22;37845;53.196;5.638;2022-09-23T18:09:10;15.10;99.90
51783;DHT22;37845;53.196;5.638;2022-09-23T18:11:39;15.10;99.90
51783;DHT22;37845;53.196;5.638;2022-09-23T18:14:06;15.00;99.90
51783;DHT22;37845;53.196;5.638;2022-09-23T18:16:35;15.00;99.90
51783;DHT22;37845;53.196;5.638;2022-09-23T18:19:02;15.00;99.90
51783;DHT22;37845;53.196;5.638;2022-09-23T18:21:29;15.00;99.90
51783;DHT22;37845;53.196;5.638;2022-09-23T18:23:55;15.00;99.90
51783;DHT22;37845;53.196;5.638;2022-09-23T18:26:22;15.00;99.90
51783;DHT22;37845;53.196;5.638;2022-09-23T18:28:48;15.00;99.90
51783;DHT22;37845;53.196;5.638;2022-09-23T18:31:14;14.90;99.90
51783;DHT22;37845;53.196;5.638;2022-09-23T18:33:40;15.00;99.90
51783;DHT22;37845;53.196;5.638;2022-09-23T18:36:06;15.00;99.90
51783;DHT22;37845;53.196;5.638;2022-09-23T18:38:32;15.00;99.90